sensor_id;sensor_type;location;lat;lon;timestamp;pressure;altitude;pressure_sealevel;temperature;humidity
42169;BME280;27838;43.858;25.974;2023-12-20T00:00:25;101374.56;;;9.03;52.69
42169;BME280;27838;43.858;25.974;2023-12-20T00:02:51;101376.31;;;9.06;52.56
42169;BME280;27838;43.858;25.974;2023-12-20T00:05:18;101366.75;;;9.05;52.37
42169;BME280;27838;43.858;25.974;2023-12-20T00:07:44;101364.16;;;9.06;52.38
42169;BME280;27838;43.858;25.974;2023-12-20T00:10:11;101362.47;;;9.07;52.65
42169;BME280;27838;43.858;25.974;2023-12-20T00:12:38;101366.81;;;9.08;52.56
42169;BME280;27838;43.858;25.974;2023-12-20T00:15:05;101361.53;;;9.05;52.45
42169;BME280;27838;43.858;25.974;2023-12-20T00:17:31;101360.72;;;9.06;52.45
42169;BME280;27838;43.858;25.974;2023-12-20T00:19:58;101354.56;;;9.01;52.48
42169;BME280;27838;43.858;25.974;2023-12-20T00:22:24;101365.75;;;8.97;53.04
42169;BME280;27838;43.858;25.974;2023-12-20T00:24:51;101357.81;;;8.89;52.75
42169;BME280;27838;43.858;25.974;2023-12-20T00:27:17;101356.09;;;8.88;53.11
42169;BME280;27838;43.858;25.974;2023-12-20T00:29:44;101355.25;;;8.91;53.04
42169;BME280;27838;43.858;25.974;2023-12-20T00:32:14;101350.91;;;8.91;53.06
42169;BME280;27838;43.858;25.974;2023-12-20T00:34:41;101347.41;;;8.89;53.26
42169;BME280;27838;43.858;25.974;2023-12-20T00:37:07;101343.88;;;8.85;53.17
42169;BME280;27838;43.858;25.974;2023-12-20T00:39:34;101332.50;;;8.77;53.50
42169;BME280;27838;43.858;25.974;2023-12-20T00:42:00;101339.56;;;8.84;53.60
42169;BME280;27838;43.858;25.974;2023-12-20T00:44:27;101336.00;;;8.79;53.80
42169;BME280;27838;43.858;25.974;2023-12-20T00:46:54;101333.34;;;8.76;53.94
42169;BME280;27838;43.858;25.974;2023-12-20T00:49:20;101336.91;;;8.81;53.50
42169;BME280;27838;43.858;25.974;2023-12-20T00:51:47;101329.09;;;8.81;52.77
42169;BME280;27838;43.858;25.974;2023-12-20T00:54:15;101331.66;;;8.78;53.03
42169;BME280;27838;43.858;25.974;2023-12-20T00:56:42;101322.94;;;8.76;52.92
42169;BME280;27838;43.858;25.974;2023-12-20T00:59:08;101317.66;;;8.72;53.07
42169;BME280;27838;43.858;25.974;2023-12-20T01:01:36;101312.56;;;8.76;53.05
42169;BME280;27838;43.858;25.974;2023-12-20T01:04:03;101315.97;;;8.72;52.88
42169;BME280;27838;43.858;25.974;2023-12-20T01:06:29;101297.66;;;8.66;53.04
42169;BME280;27838;43.858;25.974;2023-12-20T01:08:56;101300.38;;;8.72;52.52
42169;BME280;27838;43.858;25.974;2023-12-20T01:11:22;101276.78;;;8.60;52.42
42169;BME280;27838;43.858;25.974;2023-12-20T01:13:49;101286.34;;;8.64;52.28
42169;BME280;27838;43.858;25.974;2023-12-20T01:16:15;101292.38;;;8.63;52.37
42169;BME280;27838;43.858;25.974;2023-12-20T01:18:42;101293.09;;;8.54;52.72
42169;BME280;27838;43.858;25.974;2023-12-20T01:21:08;101285.22;;;8.48;52.48
42169;BME280;27838;43.858;25.974;2023-12-20T01:23:35;101286.09;;;8.48;52.06
42169;BME280;27838;43.858;25.974;2023-12-20T01:26:02;101277.34;;;8.43;52.63
42169;BME280;27838;43.858;25.974;2023-12-20T01:28:29;101263.38;;;8.40;52.86
42169;BME280;27838;43.858;25.974;2023-12-20T01:30:57;101257.25;;;8.36;53.67
42169;BME280;27838;43.858;25.974;2023-12-20T01:33:24;101256.44;;;8.37;53.60
42169;BME280;27838;43.858;25.974;2023-12-20T01:35:50;101256.47;;;8.40;53.40
42169;BME280;27838;43.858;25.974;2023-12-20T01:38:17;101252.22;;;8.42;53.25
42169;BME280;27838;43.858;25.974;2023-12-20T01:40:45;101244.44;;;8.42;52.75
42169;BME280;27838;43.858;25.974;2023-12-20T01:43:13;101226.94;;;8.34;53.18
42169;BME280;27838;43.858;25.974;2023-12-20T01:45:39;101229.53;;;8.35;53.22
42169;BME280;27838;43.858;25.974;2023-12-20T01:48:07;101219.91;;;8.29;52.67
42169;BME280;27838;43.858;25.974;2023-12-20T01:50:36;101214.59;;;8.22;52.96
42169;BME280;27838;43.858;25.974;2023-12-20T01:53:03;101207.59;;;8.16;52.85
42169;BME280;27838;43.858;25.974;2023-12-20T01:55:33;101205.88;;;8.18;52.38
42169;BME280;27838;43.858;25.974;2023-12-20T01:58:01;101208.41;;;8.15;52.90
42169;BME280;27838;43.858;25.974;2023-12-20T02:00:27;101205.81;;;8.15;52.92
42169;BME280;27838;43.858;25.974;2023-12-20T02:02:55;101198.94;;;8.17;52.52
42169;BME280;27838;43.858;25.974;2023-12-20T02:05:22;101185.84;;;8.11;52.95
42169;BME280;27838;43.858;25.974;2023-12-20T02:07:47;101196.34;;;8.17;52.77
42169;BME280;27838;43.858;25.974;2023-12-20T02:10:15;101189.44;;;8.19;52.97
42169;BME280;27838;43.858;25.974;2023-12-20T02:12:42;101186.81;;;8.16;52.92
42169;BME280;27838;43.858;25.974;2023-12-20T02:15:09;101175.38;;;8.06;53.80
42169;BME280;27838;43.858;25.974;2023-12-20T02:17:36;101192.81;;;8.13;53.56
42169;BME280;27838;43.858;25.974;2023-12-20T02:20:03;101189.31;;;8.11;54.18
42169;BME280;27838;43.858;25.974;2023-12-20T02:22:31;101180.59;;;8.08;54.50
42169;BME280;27838;43.858;25.974;2023-12-20T02:24:57;101158.84;;;8.01;54.54
42169;BME280;27838;43.858;25.974;2023-12-20T02:27:24;101183.28;;;8.12;54.54
42169;BME280;27838;43.858;25.974;2023-12-20T02:29:51;101179.78;;;8.12;53.93
42169;BME280;27838;43.858;25.974;2023-12-20T02:32:18;101182.34;;;8.10;52.83
42169;BME280;27838;43.858;25.974;2023-12-20T02:34:46;101165.84;;;8.04;53.57
42169;BME280;27838;43.858;25.974;2023-12-20T02:37:13;101149.19;;;7.94;53.99
42169;BME280;27838;43.858;25.974;2023-12-20T02:39:40;101150.97;;;7.95;53.89
42169;BME280;27838;43.858;25.974;2023-12-20T02:42:06;101158.69;;;7.92;53.56
42169;BME280;27838;43.858;25.974;2023-12-20T02:44:33;101155.06;;;7.84;53.58
42169;BME280;27838;43.858;25.974;2023-12-20T02:46:59;101163.84;;;7.90;52.77
42169;BME280;27838;43.858;25.974;2023-12-20T02:49:26;101162.94;;;7.87;52.91
42169;BME280;27838;43.858;25.974;2023-12-20T02:51:52;101143.66;;;7.75;52.89
42169;BME280;27838;43.858;25.974;2023-12-20T02:54:19;101149.00;;;7.82;53.62
42169;BME280;27838;43.858;25.974;2023-12-20T02:56:45;101140.31;;;7.80;54.45
42169;BME280;27838;43.858;25.974;2023-12-20T02:59:12;101147.28;;;7.84;53.54
42169;BME280;27838;43.858;25.974;2023-12-20T03:01:45;101145.53;;;7.83;53.32
42169;BME280;27838;43.858;25.974;2023-12-20T03:04:12;101151.59;;;7.82;53.41
42169;BME280;27838;43.858;25.974;2023-12-20T03:06:39;101143.69;;;7.77;53.73
42169;BME280;27838;43.858;25.974;2023-12-20T03:09:05;101141.97;;;7.76;54.13
42169;BME280;27838;43.858;25.974;2023-12-20T03:11:32;101144.53;;;7.74;54.12
42169;BME280;27838;43.858;25.974;2023-12-20T03:13:59;101143.66;;;7.75;53.92
42169;BME280;27838;43.858;25.974;2023-12-20T03:16:25;101135.84;;;7.74;54.19
42169;BME280;27838;43.858;25.974;2023-12-20T03:18:52;101142.75;;;7.72;53.95
42169;BME280;27838;43.858;25.974;2023-12-20T03:21:18;101138.31;;;7.66;53.95
42169;BME280;27838;43.858;25.974;2023-12-20T03:23:45;101134.00;;;7.67;54.55
42169;BME280;27838;43.858;25.974;2023-12-20T03:26:12;101134.09;;;7.71;53.70
42169;BME280;27838;43.858;25.974;2023-12-20T03:28:38;101128.88;;;7.70;53.41
42169;BME280;27838;43.858;25.974;2023-12-20T03:31:05;101119.19;;;7.61;53.23
42169;BME280;27838;43.858;25.974;2023-12-20T03:33:31;101117.47;;;7.60;53.64
42169;BME280;27838;43.858;25.974;2023-12-20T03:35:58;101113.03;;;7.54;53.78
42169;BME280;27838;43.858;25.974;2023-12-20T03:38:24;101118.19;;;7.51;54.27
42169;BME280;27838;43.858;25.974;2023-12-20T03:40:51;101108.53;;;7.46;54.31
42169;BME280;27838;43.858;25.974;2023-12-20T03:43:18;101099.91;;;7.47;54.43
42169;BME280;27838;43.858;25.974;2023-12-20T03:45:44;101094.72;;;7.47;54.16
42169;BME280;27838;43.858;25.974;2023-12-20T03:48:11;101095.66;;;7.50;54.30
42169;BME280;27838;43.858;25.974;2023-12-20T03:50:37;101087.91;;;7.52;54.38
42169;BME280;27838;43.858;25.974;2023-12-20T03:53:04;101086.16;;;7.51;53.50
42169;BME280;27838;43.858;25.974;2023-12-20T03:55:30;101083.50;;;7.48;53.76
42169;BME280;27838;43.858;25.974;2023-12-20T03:57:57;101084.34;;;7.47;53.41
42169;BME280;27838;43.858;25.974;2023-12-20T04:00:23;101064.34;;;7.40;54.10
42169;BME280;27838;43.858;25.974;2023-12-20T04:02:50;101075.63;;;7.42;54.24
42169;BME280;27838;43.858;25.974;2023-12-20T04:05:16;101069.59;;;7.44;53.59
42169;BME280;27838;43.858;25.974;2023-12-20T04:07:43;101073.91;;;7.44;54.38
42169;BME280;27838;43.858;25.974;2023-12-20T04:10:09;101066.06;;;7.41;54.37
42169;BME280;27838;43.858;25.974;2023-12-20T04:12:36;101071.22;;;7.39;54.66
42169;BME280;27838;43.858;25.974;2023-12-20T04:15:03;101067.00;;;7.43;54.25
42169;BME280;27838;43.858;25.974;2023-12-20T04:17:34;101063.56;;;7.45;54.60
42169;BME280;27838;43.858;25.974;2023-12-20T04:20:00;101060.13;;;7.45;54.09
42169;BME280;27838;43.858;25.974;2023-12-20T04:22:27;101058.41;;;7.47;54.20
42169;BME280;27838;43.858;25.974;2023-12-20T04:24:53;101052.31;;;7.43;54.42
42169;BME280;27838;43.858;25.974;2023-12-20T04:27:20;101053.16;;;7.44;53.83
42169;BME280;27838;43.858;25.974;2023-12-20T04:29:46;101054.09;;;7.47;53.34
42169;BME280;27838;43.858;25.974;2023-12-20T04:32:13;101045.47;;;7.48;53.44
42169;BME280;27838;43.858;25.974;2023-12-20T04:34:40;101047.25;;;7.51;53.39
42169;BME280;27838;43.858;25.974;2023-12-20T04:37:06;101052.47;;;7.52;53.60
42169;BME280;27838;43.858;25.974;2023-12-20T04:39:33;101048.91;;;7.47;53.42
42169;BME280;27838;43.858;25.974;2023-12-20T04:41:59;101043.63;;;7.41;54.02
42169;BME280;27838;43.858;25.974;2023-12-20T04:44:26;101047.97;;;7.44;53.44
42169;BME280;27838;43.858;25.974;2023-12-20T04:46:52;101046.28;;;7.46;53.51
42169;BME280;27838;43.858;25.974;2023-12-20T04:49:19;101045.41;;;7.45;52.95
42169;BME280;27838;43.858;25.974;2023-12-20T04:51:45;101041.09;;;7.46;53.63
42169;BME280;27838;43.858;25.974;2023-12-20T04:54:12;101045.38;;;7.44;53.92
42169;BME280;27838;43.858;25.974;2023-12-20T04:56:38;101041.06;;;7.43;53.99
42169;BME280;27838;43.858;25.974;2023-12-20T04:59:06;101029.72;;;7.39;53.18
42169;BME280;27838;43.858;25.974;2023-12-20T05:01:33;101029.78;;;7.42;53.65
42169;BME280;27838;43.858;25.974;2023-12-20T05:03:59;101034.03;;;7.37;53.26
42169;BME280;27838;43.858;25.974;2023-12-20T05:06:26;101046.00;;;7.30;53.77
42169;BME280;27838;43.858;25.974;2023-12-20T05:08:53;101028.72;;;7.29;53.88
42169;BME280;27838;43.858;25.974;2023-12-20T05:11:19;101039.13;;;7.31;54.09
42169;BME280;27838;43.858;25.974;2023-12-20T05:13:46;101035.69;;;7.33;54.21
42169;BME280;27838;43.858;25.974;2023-12-20T05:16:12;101034.00;;;7.34;54.56
42169;BME280;27838;43.858;25.974;2023-12-20T05:18:39;101045.25;;;7.36;54.45
42169;BME280;27838;43.858;25.974;2023-12-20T05:21:06;101041.78;;;7.35;53.88
42169;BME280;27838;43.858;25.974;2023-12-20T05:23:32;101039.25;;;7.38;54.00
42169;BME280;27838;43.858;25.974;2023-12-20T05:25:59;101037.50;;;7.37;54.42
42169;BME280;27838;43.858;25.974;2023-12-20T05:28:25;101030.53;;;7.35;53.76
42169;BME280;27838;43.858;25.974;2023-12-20T05:30:52;101015.59;;;7.20;53.32
42169;BME280;27838;43.858;25.974;2023-12-20T05:33:18;101025.97;;;7.20;53.40
42169;BME280;27838;43.858;25.974;2023-12-20T05:35:45;101017.09;;;7.09;54.00
42169;BME280;27838;43.858;25.974;2023-12-20T05:38:11;101009.09;;;6.96;54.30
42169;BME280;27838;43.858;25.974;2023-12-20T05:40:38;101016.78;;;6.93;54.76
42169;BME280;27838;43.858;25.974;2023-12-20T05:43:05;101016.75;;;6.90;54.46
42169;BME280;27838;43.858;25.974;2023-12-20T05:45:31;101021.06;;;6.91;55.52
42169;BME280;27838;43.858;25.974;2023-12-20T05:47:58;101015.03;;;6.91;55.63
42169;BME280;27838;43.858;25.974;2023-12-20T05:50:25;101017.66;;;6.92;56.45
42169;BME280;27838;43.858;25.974;2023-12-20T05:52:51;101015.97;;;6.94;56.45
42169;BME280;27838;43.858;25.974;2023-12-20T05:55:18;101016.00;;;6.96;56.28
42169;BME280;27838;43.858;25.974;2023-12-20T05:57:45;101022.16;;;7.01;56.47
42169;BME280;27838;43.858;25.974;2023-12-20T06:00:12;101020.38;;;7.00;57.41
42169;BME280;27838;43.858;25.974;2023-12-20T06:02:39;101023.94;;;7.05;56.74
42169;BME280;27838;43.858;25.974;2023-12-20T06:05:06;101024.88;;;7.09;57.02
42169;BME280;27838;43.858;25.974;2023-12-20T06:07:32;101023.25;;;7.14;56.81
42169;BME280;27838;43.858;25.974;2023-12-20T06:09:59;101020.72;;;7.17;56.38
42169;BME280;27838;43.858;25.974;2023-12-20T06:12:26;101020.84;;;7.25;56.34
42169;BME280;27838;43.858;25.974;2023-12-20T06:14:54;101024.31;;;7.25;55.56
42169;BME280;27838;43.858;25.974;2023-12-20T06:17:20;101022.59;;;7.26;55.59
42169;BME280;27838;43.858;25.974;2023-12-20T06:19:47;101021.78;;;7.28;56.05
42169;BME280;27838;43.858;25.974;2023-12-20T06:22:15;101021.72;;;7.25;55.24
42169;BME280;27838;43.858;25.974;2023-12-20T06:24:41;101013.06;;;7.25;55.74
42169;BME280;27838;43.858;25.974;2023-12-20T06:27:08;101013.13;;;7.28;55.59
42169;BME280;27838;43.858;25.974;2023-12-20T06:29:34;101020.13;;;7.33;55.04
42169;BME280;27838;43.858;25.974;2023-12-20T06:32:01;101023.63;;;7.35;55.71
42169;BME280;27838;43.858;25.974;2023-12-20T06:34:27;101018.41;;;7.32;55.71
42169;BME280;27838;43.858;25.974;2023-12-20T06:36:54;101017.63;;;7.38;55.95
42169;BME280;27838;43.858;25.974;2023-12-20T06:39:20;101023.84;;;7.48;56.24
42169;BME280;27838;43.858;25.974;2023-12-20T06:41:47;101017.81;;;7.49;56.02
42169;BME280;27838;43.858;25.974;2023-12-20T06:44:14;101018.81;;;7.57;56.17
42169;BME280;27838;43.858;25.974;2023-12-20T06:46:40;101015.44;;;7.61;55.74
42169;BME280;27838;43.858;25.974;2023-12-20T06:49:07;101003.34;;;7.63;55.28
42169;BME280;27838;43.858;25.974;2023-12-20T06:51:33;101008.59;;;7.66;55.47
42169;BME280;27838;43.858;25.974;2023-12-20T06:54:00;101009.56;;;7.73;55.88
42169;BME280;27838;43.858;25.974;2023-12-20T06:56:27;100998.41;;;7.79;55.79
42169;BME280;27838;43.858;25.974;2023-12-20T06:58:54;101001.97;;;7.84;55.87
42169;BME280;27838;43.858;25.974;2023-12-20T07:01:20;100993.38;;;7.86;55.60
42169;BME280;27838;43.858;25.974;2023-12-20T07:03:47;100988.28;;;7.94;55.50
42169;BME280;27838;43.858;25.974;2023-12-20T07:06:14;100984.00;;;7.98;56.23
42169;BME280;27838;43.858;25.974;2023-12-20T07:08:42;100996.28;;;8.09;56.27
42169;BME280;27838;43.858;25.974;2023-12-20T07:11:09;100992.09;;;8.19;56.61
42169;BME280;27838;43.858;25.974;2023-12-20T07:13:35;100985.25;;;8.26;55.94
42169;BME280;27838;43.858;25.974;2023-12-20T07:16:02;100980.16;;;8.32;56.62
42169;BME280;27838;43.858;25.974;2023-12-20T07:18:28;100982.06;;;8.42;56.43
42169;BME280;27838;43.858;25.974;2023-12-20T07:20:55;100977.75;;;8.44;55.80
42169;BME280;27838;43.858;25.974;2023-12-20T07:23:21;100984.84;;;8.58;55.62
42169;BME280;27838;43.858;25.974;2023-12-20T07:25:48;100971.94;;;8.65;55.36
42169;BME280;27838;43.858;25.974;2023-12-20T07:28:14;100964.19;;;8.70;55.00
42169;BME280;27838;43.858;25.974;2023-12-20T07:30:41;100965.13;;;8.75;55.00
42169;BME280;27838;43.858;25.974;2023-12-20T07:33:08;100965.25;;;8.87;55.30
42169;BME280;27838;43.858;25.974;2023-12-20T07:35:34;100956.59;;;8.87;55.04
42169;BME280;27838;43.858;25.974;2023-12-20T07:38:01;100964.50;;;8.99;54.70
42169;BME280;27838;43.858;25.974;2023-12-20T07:40:27;100968.06;;;9.07;54.77
42169;BME280;27838;43.858;25.974;2023-12-20T07:42:54;100962.94;;;9.15;54.34
42169;BME280;27838;43.858;25.974;2023-12-20T07:45:20;100950.81;;;9.19;54.57
42169;BME280;27838;43.858;25.974;2023-12-20T07:47:47;100955.22;;;9.23;54.68
42169;BME280;27838;43.858;25.974;2023-12-20T07:50:14;100947.41;;;9.26;54.71
42169;BME280;27838;43.858;25.974;2023-12-20T07:52:41;100948.31;;;9.25;55.23
42169;BME280;27838;43.858;25.974;2023-12-20T07:55:07;100950.00;;;9.21;54.79
42169;BME280;27838;43.858;25.974;2023-12-20T07:57:34;100943.88;;;9.15;55.22
42169;BME280;27838;43.858;25.974;2023-12-20T08:00:01;100944.66;;;9.06;55.03
42169;BME280;27838;43.858;25.974;2023-12-20T08:02:29;100954.22;;;9.12;55.27
42169;BME280;27838;43.858;25.974;2023-12-20T08:04:55;100958.59;;;9.14;54.49
42169;BME280;27838;43.858;25.974;2023-12-20T08:07:22;100960.41;;;9.21;54.35
42169;BME280;27838;43.858;25.974;2023-12-20T08:09:49;100949.16;;;9.24;54.32
42169;BME280;27838;43.858;25.974;2023-12-20T08:12:16;100943.03;;;9.20;54.26
42169;BME280;27838;43.858;25.974;2023-12-20T08:14:43;100955.31;;;9.34;53.17
42169;BME280;27838;43.858;25.974;2023-12-20T08:17:09;100948.47;;;9.42;52.86
42169;BME280;27838;43.858;25.974;2023-12-20T08:19:37;100948.47;;;9.47;52.60
42169;BME280;27838;43.858;25.974;2023-12-20T08:22:04;100936.34;;;9.50;52.26
42169;BME280;27838;43.858;25.974;2023-12-20T08:24:30;100939.03;;;9.58;52.69
42169;BME280;27838;43.858;25.974;2023-12-20T08:26:56;100942.53;;;9.61;52.51
42169;BME280;27838;43.858;25.974;2023-12-20T08:29:22;100927.78;;;9.63;52.17
42169;BME280;27838;43.858;25.974;2023-12-20T08:31:53;100920.00;;;9.67;52.38
42169;BME280;27838;43.858;25.974;2023-12-20T08:34:20;100909.59;;;9.70;52.21
42169;BME280;27838;43.858;25.974;2023-12-20T08:36:46;100909.72;;;9.82;52.16
42169;BME280;27838;43.858;25.974;2023-12-20T08:39:13;100903.66;;;9.89;51.92
42169;BME280;27838;43.858;25.974;2023-12-20T08:41:40;100890.66;;;9.91;52.01
42169;BME280;27838;43.858;25.974;2023-12-20T08:44:06;100886.34;;;9.97;51.95
42169;BME280;27838;43.858;25.974;2023-12-20T08:46:33;100888.16;;;10.11;51.40
42169;BME280;27838;43.858;25.974;2023-12-20T08:48:59;100880.38;;;10.17;51.49
42169;BME280;27838;43.858;25.974;2023-12-20T08:51:26;100875.16;;;10.20;51.64
42169;BME280;27838;43.858;25.974;2023-12-20T08:53:53;100870.81;;;10.19;51.57
42169;BME280;27838;43.858;25.974;2023-12-20T08:56:20;100862.13;;;10.18;51.53
42169;BME280;27838;43.858;25.974;2023-12-20T08:58:46;100866.50;;;10.26;51.82
42169;BME280;27838;43.858;25.974;2023-12-20T09:01:14;100871.78;;;10.35;51.12
42169;BME280;27838;43.858;25.974;2023-12-20T09:03:40;100847.47;;;10.34;51.02
42169;BME280;27838;43.858;25.974;2023-12-20T09:06:07;100844.88;;;10.44;51.09
42169;BME280;27838;43.858;25.974;2023-12-20T09:08:34;100850.97;;;10.50;51.60
42169;BME280;27838;43.858;25.974;2023-12-20T09:11:00;100847.50;;;10.53;51.44
42169;BME280;27838;43.858;25.974;2023-12-20T09:13:27;100823.16;;;10.49;51.50
42169;BME280;27838;43.858;25.974;2023-12-20T09:15:56;100831.00;;;10.57;51.21
42169;BME280;27838;43.858;25.974;2023-12-20T09:18:23;100832.75;;;10.64;51.45
42169;BME280;27838;43.858;25.974;2023-12-20T09:20:50;100827.53;;;10.58;51.94
42169;BME280;27838;43.858;25.974;2023-12-20T09:23:17;100826.66;;;10.53;52.44
42169;BME280;27838;43.858;25.974;2023-12-20T09:25:43;100821.44;;;10.51;52.43
42169;BME280;27838;43.858;25.974;2023-12-20T09:28:10;100816.22;;;10.47;52.76
42169;BME280;27838;43.858;25.974;2023-12-20T09:30:37;100817.94;;;10.37;53.24
42169;BME280;27838;43.858;25.974;2023-12-20T09:33:05;100813.59;;;10.37;53.23
42169;BME280;27838;43.858;25.974;2023-12-20T09:35:32;100805.75;;;10.37;53.52
42169;BME280;27838;43.858;25.974;2023-12-20T09:37:59;100800.56;;;10.37;53.99
42169;BME280;27838;43.858;25.974;2023-12-20T09:40:26;100788.38;;;10.39;53.82
42169;BME280;27838;43.858;25.974;2023-12-20T09:42:56;100774.53;;;10.51;53.50
42169;BME280;27838;43.858;25.974;2023-12-20T09:45:23;100762.38;;;10.58;53.20
42169;BME280;27838;43.858;25.974;2023-12-20T09:47:51;100753.69;;;10.65;53.31
42169;BME280;27838;43.858;25.974;2023-12-20T09:50:20;100746.72;;;10.84;53.23
42169;BME280;27838;43.858;25.974;2023-12-20T09:52:52;100743.22;;;11.01;52.77
42169;BME280;27838;43.858;25.974;2023-12-20T09:55:20;100728.44;;;11.15;52.16
42169;BME280;27838;43.858;25.974;2023-12-20T09:57:47;100722.28;;;11.30;52.45
42169;BME280;27838;43.858;25.974;2023-12-20T10:00:14;100717.06;;;11.31;51.77
42169;BME280;27838;43.858;25.974;2023-12-20T10:02:47;100719.69;;;11.36;51.73
42169;BME280;27838;43.858;25.974;2023-12-20T10:05:17;100717.91;;;11.41;51.55
42169;BME280;27838;43.858;25.974;2023-12-20T10:07:46;100708.28;;;11.54;51.69
42169;BME280;27838;43.858;25.974;2023-12-20T10:10:14;100705.63;;;11.71;51.21
42169;BME280;27838;43.858;25.974;2023-12-20T10:13:04;100702.09;;;11.81;51.17
42169;BME280;27838;43.858;25.974;2023-12-20T10:15:32;100695.09;;;11.80;50.89
42169;BME280;27838;43.858;25.974;2023-12-20T10:18:00;100691.59;;;11.90;50.98
42169;BME280;27838;43.858;25.974;2023-12-20T10:20:27;100682.88;;;11.93;50.67
42169;BME280;27838;43.858;25.974;2023-12-20T10:22:55;100677.66;;;11.85;50.87
42169;BME280;27838;43.858;25.974;2023-12-20T10:25:22;100675.97;;;11.80;50.87
42169;BME280;27838;43.858;25.974;2023-12-20T10:27:50;100670.78;;;11.72;51.10
42169;BME280;27838;43.858;25.974;2023-12-20T10:30:24;100678.59;;;11.77;51.73
42169;BME280;27838;43.858;25.974;2023-12-20T10:32:50;100669.84;;;11.85;50.98
42169;BME280;27838;43.858;25.974;2023-12-20T10:35:17;100652.41;;;11.92;50.52
42169;BME280;27838;43.858;25.974;2023-12-20T10:37:45;100661.03;;;12.03;50.28
42169;BME280;27838;43.858;25.974;2023-12-20T10:40:12;100647.94;;;12.11;49.70
42169;BME280;27838;43.858;25.974;2023-12-20T10:42:39;100651.41;;;12.12;49.42
42169;BME280;27838;43.858;25.974;2023-12-20T10:45:06;100628.75;;;12.09;49.63
42169;BME280;27838;43.858;25.974;2023-12-20T10:47:34;100639.94;;;12.30;49.40
42169;BME280;27838;43.858;25.974;2023-12-20T10:50:05;100634.56;;;12.46;49.67
42169;BME280;27838;43.858;25.974;2023-12-20T10:52:32;100632.66;;;12.64;48.79
42169;BME280;27838;43.858;25.974;2023-12-20T10:54:59;100623.84;;;12.74;48.12
42169;BME280;27838;43.858;25.974;2023-12-20T10:57:26;100612.41;;;12.83;47.88
42169;BME280;27838;43.858;25.974;2023-12-20T10:59:54;100589.00;;;12.72;47.74
42169;BME280;27838;43.858;25.974;2023-12-20T11:02:21;100613.28;;;12.82;47.35
42169;BME280;27838;43.858;25.974;2023-12-20T11:05:06;100610.69;;;12.79;47.18
42169;BME280;27838;43.858;25.974;2023-12-20T11:07:50;100605.56;;;12.70;47.45
42169;BME280;27838;43.858;25.974;2023-12-20T11:10:23;100604.63;;;12.77;47.84
42169;BME280;27838;43.858;25.974;2023-12-20T11:12:53;100602.63;;;12.99;46.76
42169;BME280;27838;43.858;25.974;2023-12-20T11:15:21;100600.81;;;13.06;46.44
42169;BME280;27838;43.858;25.974;2023-12-20T11:17:55;100599.72;;;13.22;46.68
42169;BME280;27838;43.858;25.974;2023-12-20T11:20:23;100593.41;;;13.40;45.89
42169;BME280;27838;43.858;25.974;2023-12-20T11:22:54;100588.75;;;13.62;45.87
42169;BME280;27838;43.858;25.974;2023-12-20T11:25:21;100578.00;;;13.81;45.34
42169;BME280;27838;43.858;25.974;2023-12-20T11:28:09;100577.84;;;13.90;45.15
42169;BME280;27838;43.858;25.974;2023-12-20T11:30:51;100576.97;;;13.89;44.75
42169;BME280;27838;43.858;25.974;2023-12-20T11:33:21;100576.25;;;13.79;45.18
42169;BME280;27838;43.858;25.974;2023-12-20T11:35:48;100584.44;;;13.58;45.67
42169;BME280;27838;43.858;25.974;2023-12-20T11:38:14;100576.69;;;13.49;45.98
42169;BME280;27838;43.858;25.974;2023-12-20T11:40:42;100578.41;;;13.53;46.46
42169;BME280;27838;43.858;25.974;2023-12-20T11:43:09;100574.84;;;13.57;46.59
42169;BME280;27838;43.858;25.974;2023-12-20T11:45:36;100570.38;;;13.64;46.73
42169;BME280;27838;43.858;25.974;2023-12-20T11:48:02;100560.66;;;13.72;46.51
42169;BME280;27838;43.858;25.974;2023-12-20T11:50:29;100550.06;;;13.79;46.74
42169;BME280;27838;43.858;25.974;2023-12-20T11:52:56;100529.22;;;13.73;46.56
42169;BME280;27838;43.858;25.974;2023-12-20T11:55:23;100530.78;;;13.84;47.02
42169;BME280;27838;43.858;25.974;2023-12-20T11:57:51;100529.06;;;13.83;47.05
42169;BME280;27838;43.858;25.974;2023-12-20T12:00:18;100534.47;;;13.73;47.47
42169;BME280;27838;43.858;25.974;2023-12-20T12:02:55;100525.81;;;13.68;47.56
42169;BME280;27838;43.858;25.974;2023-12-20T12:05:22;100506.75;;;13.57;47.74
42169;BME280;27838;43.858;25.974;2023-12-20T12:07:48;100509.34;;;13.58;47.96
42169;BME280;27838;43.858;25.974;2023-12-20T12:10:15;100499.97;;;13.44;47.65
42169;BME280;27838;43.858;25.974;2023-12-20T12:12:41;100504.53;;;13.32;48.16
42169;BME280;27838;43.858;25.974;2023-12-20T12:15:08;100499.41;;;13.23;47.25
42169;BME280;27838;43.858;25.974;2023-12-20T12:17:35;100489.84;;;13.19;47.44
42169;BME280;27838;43.858;25.974;2023-12-20T12:20:06;100490.63;;;13.24;47.31
42169;BME280;27838;43.858;25.974;2023-12-20T12:22:35;100484.72;;;13.13;47.46
42169;BME280;27838;43.858;25.974;2023-12-20T12:25:12;100472.59;;;13.06;46.99
42169;BME280;27838;43.858;25.974;2023-12-20T12:27:40;100478.63;;;13.12;47.21
42169;BME280;27838;43.858;25.974;2023-12-20T12:30:08;100466.31;;;13.17;46.75
42169;BME280;27838;43.858;25.974;2023-12-20T12:32:35;100473.31;;;13.17;46.21
42169;BME280;27838;43.858;25.974;2023-12-20T12:35:04;100475.06;;;13.16;46.54
42169;BME280;27838;43.858;25.974;2023-12-20T12:37:33;100486.25;;;13.26;46.50
42169;BME280;27838;43.858;25.974;2023-12-20T12:40:00;100483.59;;;13.32;46.47
42169;BME280;27838;43.858;25.974;2023-12-20T12:42:26;100486.16;;;13.35;46.19
42169;BME280;27838;43.858;25.974;2023-12-20T12:44:54;100479.97;;;13.41;46.00
42169;BME280;27838;43.858;25.974;2023-12-20T12:47:21;100472.84;;;13.49;46.19